Weather at Gisborne Airport

Public forecast

Using degrees Celsius for public forecast. Weather courtesy of forecast.io.

Closest aviation weather report (METAR) to Gisborne Airport

Report is more than 6 hours old.

Closest report is RNZAF Base Ohakea, 151.7 nm (280.9 km) SW. Retrieved 2020/10/19 01:00 UTC (2 days ago):

NZOH 190100Z 31017KT 35KM BKN042 BKN070 21/13 Q1010 TEMPO 5000 RA BKN025

Closest aviation forecast (TAF) to Gisborne Airport

Closest forecast is Auckland International Airport, 180.8 nm (334.9 km) WNW. Retrieved 2020/10/20 12:06 UTC (2 hours ago):

TAF NZAA 201104Z 2012/2112 33008KT 9999 SCT012 BKN030 TEMPO 2012/2021 4000 RADZ BKN008 BECMG 2022/2100 27010KT TEMPO 2023/2107 5000 SHRA FM210600 VRB02KT 9999 SCT050